sensor_id;sensor_type;location;lat;lon;timestamp;noise_LAeq;noise_LA_min;noise_LA_max;noise_LA01;noise_LA95
79200;Laerm;68628;48.714;9.472;2023-06-26T00:01:26;35.62;33.27;42.82;;
79200;Laerm;68628;48.714;9.472;2023-06-26T00:03:55;36.24;33.47;47.34;;
79200;Laerm;68628;48.714;9.472;2023-06-26T00:06:21;36.14;33.44;42.25;;
79200;Laerm;68628;48.714;9.472;2023-06-26T00:08:50;35.85;33.74;40.99;;
79200;Laerm;68628;48.714;9.472;2023-06-26T00:11:16;35.08;32.80;37.27;;
79200;Laerm;68628;48.714;9.472;2023-06-26T00:13:42;34.90;33.10;39.32;;
79200;Laerm;68628;48.714;9.472;2023-06-26T00:16:07;34.95;32.23;39.12;;
79200;Laerm;68628;48.714;9.472;2023-06-26T00:18:33;35.73;33.97;38.71;;
79200;Laerm;68628;48.714;9.472;2023-06-26T00:20:59;35.72;33.80;39.10;;
79200;Laerm;68628;48.714;9.472;2023-06-26T00:23:24;35.96;33.29;39.46;;
79200;Laerm;68628;48.714;9.472;2023-06-26T00:25:50;36.46;33.80;40.92;;
79200;Laerm;68628;48.714;9.472;2023-06-26T00:28:15;37.45;34.87;40.28;;
79200;Laerm;68628;48.714;9.472;2023-06-26T00:30:41;38.59;34.78;43.50;;
79200;Laerm;68628;48.714;9.472;2023-06-26T00:33:07;36.32;33.83;40.31;;
79200;Laerm;68628;48.714;9.472;2023-06-26T00:35:32;36.73;34.59;40.28;;
79200;Laerm;68628;48.714;9.472;2023-06-26T00:37:58;35.96;33.65;40.56;;
79200;Laerm;68628;48.714;9.472;2023-06-26T00:40:23;36.20;34.33;39.87;;
79200;Laerm;68628;48.714;9.472;2023-06-26T00:42:50;40.54;35.00;52.34;;
79200;Laerm;68628;48.714;9.472;2023-06-26T00:45:15;39.12;35.28;45.52;;
79200;Laerm;68628;48.714;9.472;2023-06-26T00:47:41;37.08;34.51;41.39;;
79200;Laerm;68628;48.714;9.472;2023-06-26T00:50:08;35.62;33.72;40.18;;
79200;Laerm;68628;48.714;9.472;2023-06-26T00:52:34;36.89;34.29;41.86;;
79200;Laerm;68628;48.714;9.472;2023-06-26T00:55:00;36.88;34.77;41.41;;
79200;Laerm;68628;48.714;9.472;2023-06-26T00:57:26;36.19;33.73;40.81;;
79200;Laerm;68628;48.714;9.472;2023-06-26T00:59:53;39.50;33.77;51.99;;
79200;Laerm;68628;48.714;9.472;2023-06-26T01:02:19;36.29;33.91;40.50;;
79200;Laerm;68628;48.714;9.472;2023-06-26T01:04:51;35.07;32.70;37.80;;
79200;Laerm;68628;48.714;9.472;2023-06-26T01:07:19;36.32;34.14;38.88;;
79200;Laerm;68628;48.714;9.472;2023-06-26T01:09:48;36.63;34.03;39.48;;
79200;Laerm;68628;48.714;9.472;2023-06-26T01:12:15;42.55;36.23;50.10;;
79200;Laerm;68628;48.714;9.472;2023-06-26T01:14:41;38.44;35.62;46.55;;
79200;Laerm;68628;48.714;9.472;2023-06-26T01:17:09;39.19;34.43;49.92;;
79200;Laerm;68628;48.714;9.472;2023-06-26T01:19:42;36.80;34.49;44.69;;
79200;Laerm;68628;48.714;9.472;2023-06-26T01:22:39;36.99;34.02;44.44;;
79200;Laerm;68628;48.714;9.472;2023-06-26T01:28:05;36.53;33.89;45.22;;
79200;Laerm;68628;48.714;9.472;2023-06-26T01:30:41;39.87;36.00;45.86;;
79200;Laerm;68628;48.714;9.472;2023-06-26T01:33:09;38.60;35.53;41.51;;
79200;Laerm;68628;48.714;9.472;2023-06-26T01:35:35;36.63;34.51;40.54;;
79200;Laerm;68628;48.714;9.472;2023-06-26T01:38:21;36.90;34.71;45.78;;
79200;Laerm;68628;48.714;9.472;2023-06-26T01:40:50;36.89;34.20;41.60;;
79200;Laerm;68628;48.714;9.472;2023-06-26T01:43:31;36.37;34.68;44.52;;
79200;Laerm;68628;48.714;9.472;2023-06-26T01:49:46;38.71;35.68;45.14;;
79200;Laerm;68628;48.714;9.472;2023-06-26T01:52:39;38.57;35.81;43.19;;
79200;Laerm;68628;48.714;9.472;2023-06-26T01:55:15;37.42;35.04;41.98;;
79200;Laerm;68628;48.714;9.472;2023-06-26T01:57:46;39.94;36.24;50.84;;
79200;Laerm;68628;48.714;9.472;2023-06-26T02:00:15;38.40;35.98;42.27;;
79200;Laerm;68628;48.714;9.472;2023-06-26T02:02:44;38.76;35.56;54.97;;
79200;Laerm;68628;48.714;9.472;2023-06-26T02:05:10;40.08;34.81;53.80;;
79200;Laerm;68628;48.714;9.472;2023-06-26T02:07:35;38.10;35.13;42.41;;
79200;Laerm;68628;48.714;9.472;2023-06-26T02:10:02;40.68;36.56;49.56;;
79200;Laerm;68628;48.714;9.472;2023-06-26T02:12:28;39.88;36.99;44.26;;
79200;Laerm;68628;48.714;9.472;2023-06-26T02:14:54;39.54;36.44;48.26;;
79200;Laerm;68628;48.714;9.472;2023-06-26T02:17:19;39.59;36.89;45.08;;
79200;Laerm;68628;48.714;9.472;2023-06-26T02:19:45;50.27;37.02;65.89;;
79200;Laerm;68628;48.714;9.472;2023-06-26T02:22:16;55.09;38.47;66.74;;
79200;Laerm;68628;48.714;9.472;2023-06-26T02:24:43;55.19;39.25;65.86;;
79200;Laerm;68628;48.714;9.472;2023-06-26T02:27:09;55.30;39.71;66.11;;
79200;Laerm;68628;48.714;9.472;2023-06-26T02:29:35;52.02;38.89;62.72;;
79200;Laerm;68628;48.714;9.472;2023-06-26T02:32:01;51.01;38.75;63.72;;
79200;Laerm;68628;48.714;9.472;2023-06-26T02:34:27;51.14;38.26;61.36;;
79200;Laerm;68628;48.714;9.472;2023-06-26T02:36:53;50.44;39.39;62.61;;
79200;Laerm;68628;48.714;9.472;2023-06-26T02:39:22;50.67;40.34;61.44;;
79200;Laerm;68628;48.714;9.472;2023-06-26T02:41:48;53.33;40.34;72.74;;
79200;Laerm;68628;48.714;9.472;2023-06-26T02:44:13;51.56;40.03;61.97;;
79200;Laerm;68628;48.714;9.472;2023-06-26T02:46:40;52.52;41.43;64.24;;
79200;Laerm;68628;48.714;9.472;2023-06-26T02:49:07;51.39;41.53;61.69;;
79200;Laerm;68628;48.714;9.472;2023-06-26T02:51:33;50.99;41.92;62.25;;
79200;Laerm;68628;48.714;9.472;2023-06-26T02:54:00;51.01;42.28;59.83;;
79200;Laerm;68628;48.714;9.472;2023-06-26T02:56:26;52.02;41.54;63.27;;
79200;Laerm;68628;48.714;9.472;2023-06-26T02:58:56;50.59;41.12;63.09;;
79200;Laerm;68628;48.714;9.472;2023-06-26T03:01:22;46.42;40.58;58.46;;
79200;Laerm;68628;48.714;9.472;2023-06-26T03:03:48;47.11;40.19;58.62;;
79200;Laerm;68628;48.714;9.472;2023-06-26T03:06:15;47.61;41.92;60.80;;
79200;Laerm;68628;48.714;9.472;2023-06-26T03:08:41;44.14;41.66;49.39;;
79200;Laerm;68628;48.714;9.472;2023-06-26T03:11:09;45.31;41.91;53.60;;
79200;Laerm;68628;48.714;9.472;2023-06-26T03:13:36;47.21;41.64;59.75;;
79200;Laerm;68628;48.714;9.472;2023-06-26T03:16:02;47.86;41.99;57.54;;
79200;Laerm;68628;48.714;9.472;2023-06-26T03:18:28;46.70;42.59;57.06;;
79200;Laerm;68628;48.714;9.472;2023-06-26T03:20:56;49.39;42.53;62.57;;
79200;Laerm;68628;48.714;9.472;2023-06-26T03:23:23;50.49;43.44;65.22;;
79200;Laerm;68628;48.714;9.472;2023-06-26T03:25:49;47.93;43.41;56.34;;
79200;Laerm;68628;48.714;9.472;2023-06-26T03:28:16;48.37;42.72;61.61;;
79200;Laerm;68628;48.714;9.472;2023-06-26T03:30:42;47.87;43.26;58.47;;
79200;Laerm;68628;48.714;9.472;2023-06-26T03:33:08;49.52;43.75;61.26;;
79200;Laerm;68628;48.714;9.472;2023-06-26T03:35:34;48.95;42.95;61.93;;
79200;Laerm;68628;48.714;9.472;2023-06-26T03:37:59;48.76;43.79;58.71;;
79200;Laerm;68628;48.714;9.472;2023-06-26T03:40:26;45.82;43.07;51.45;;
79200;Laerm;68628;48.714;9.472;2023-06-26T03:42:52;47.71;44.77;54.37;;
79200;Laerm;68628;48.714;9.472;2023-06-26T03:45:18;49.68;45.79;60.40;;
79200;Laerm;68628;48.714;9.472;2023-06-26T03:47:45;48.50;44.59;57.40;;
79200;Laerm;68628;48.714;9.472;2023-06-26T03:50:15;48.79;44.78;60.21;;
79200;Laerm;68628;48.714;9.472;2023-06-26T03:52:41;48.20;44.67;60.38;;
79200;Laerm;68628;48.714;9.472;2023-06-26T03:55:07;48.71;43.92;58.54;;
79200;Laerm;68628;48.714;9.472;2023-06-26T03:57:33;48.99;45.87;56.73;;
79200;Laerm;68628;48.714;9.472;2023-06-26T03:59:59;48.66;44.39;58.28;;
79200;Laerm;68628;48.714;9.472;2023-06-26T04:02:24;49.45;45.81;57.25;;
79200;Laerm;68628;48.714;9.472;2023-06-26T04:04:50;49.56;46.08;57.91;;
79200;Laerm;68628;48.714;9.472;2023-06-26T04:07:18;48.87;45.70;57.30;;
79200;Laerm;68628;48.714;9.472;2023-06-26T04:09:44;51.80;45.54;64.39;;
79200;Laerm;68628;48.714;9.472;2023-06-26T04:12:10;49.83;46.31;59.72;;
79200;Laerm;68628;48.714;9.472;2023-06-26T04:14:36;51.62;46.78;59.05;;
79200;Laerm;68628;48.714;9.472;2023-06-26T04:17:02;50.15;45.89;57.21;;
79200;Laerm;68628;48.714;9.472;2023-06-26T04:19:29;51.19;46.60;59.93;;
79200;Laerm;68628;48.714;9.472;2023-06-26T04:21:56;51.31;47.16;60.62;;
79200;Laerm;68628;48.714;9.472;2023-06-26T04:24:22;51.46;46.44;60.64;;
79200;Laerm;68628;48.714;9.472;2023-06-26T04:26:48;51.77;47.23;60.31;;
79200;Laerm;68628;48.714;9.472;2023-06-26T04:29:13;50.98;46.54;60.54;;
79200;Laerm;68628;48.714;9.472;2023-06-26T04:31:39;51.14;46.36;61.10;;
79200;Laerm;68628;48.714;9.472;2023-06-26T04:34:05;51.16;45.91;63.00;;
79200;Laerm;68628;48.714;9.472;2023-06-26T04:36:31;52.06;46.58;62.21;;
79200;Laerm;68628;48.714;9.472;2023-06-26T04:38:59;50.53;46.66;60.12;;
79200;Laerm;68628;48.714;9.472;2023-06-26T04:41:25;52.54;47.58;62.23;;
79200;Laerm;68628;48.714;9.472;2023-06-26T04:43:51;53.49;46.87;66.53;;
79200;Laerm;68628;48.714;9.472;2023-06-26T04:46:16;51.12;46.38;59.62;;
79200;Laerm;68628;48.714;9.472;2023-06-26T04:48:42;50.62;46.17;60.41;;
79200;Laerm;68628;48.714;9.472;2023-06-26T04:51:11;51.32;46.94;60.19;;
79200;Laerm;68628;48.714;9.472;2023-06-26T04:53:36;52.61;46.68;63.03;;
79200;Laerm;68628;48.714;9.472;2023-06-26T04:56:03;52.52;45.21;65.06;;
79200;Laerm;68628;48.714;9.472;2023-06-26T04:58:30;49.74;45.24;57.06;;
79200;Laerm;68628;48.714;9.472;2023-06-26T05:00:56;50.75;45.63;57.56;;
79200;Laerm;68628;48.714;9.472;2023-06-26T05:03:22;52.28;46.58;62.17;;
79200;Laerm;68628;48.714;9.472;2023-06-26T05:05:47;50.35;46.21;59.08;;
79200;Laerm;68628;48.714;9.472;2023-06-26T05:08:21;52.76;46.36;63.44;;
79200;Laerm;68628;48.714;9.472;2023-06-26T05:10:47;51.40;46.49;61.31;;
79200;Laerm;68628;48.714;9.472;2023-06-26T05:13:13;52.31;45.83;69.64;;
79200;Laerm;68628;48.714;9.472;2023-06-26T05:15:46;51.29;46.42;58.39;;
79200;Laerm;68628;48.714;9.472;2023-06-26T05:18:12;49.59;46.19;54.76;;
79200;Laerm;68628;48.714;9.472;2023-06-26T05:20:39;50.09;46.33;56.52;;
79200;Laerm;68628;48.714;9.472;2023-06-26T05:23:05;51.44;46.31;60.43;;
79200;Laerm;68628;48.714;9.472;2023-06-26T05:25:32;49.75;45.54;59.88;;
79200;Laerm;68628;48.714;9.472;2023-06-26T05:28:00;53.87;45.57;67.13;;
79200;Laerm;68628;48.714;9.472;2023-06-26T05:30:27;48.90;44.54;55.60;;
79200;Laerm;68628;48.714;9.472;2023-06-26T05:32:54;49.42;45.10;58.65;;
79200;Laerm;68628;48.714;9.472;2023-06-26T05:35:21;49.88;44.69;57.94;;
79200;Laerm;68628;48.714;9.472;2023-06-26T05:37:50;48.73;45.05;55.59;;
79200;Laerm;68628;48.714;9.472;2023-06-26T05:40:17;55.46;44.48;68.79;;
79200;Laerm;68628;48.714;9.472;2023-06-26T05:42:44;48.20;44.44;59.83;;
79200;Laerm;68628;48.714;9.472;2023-06-26T05:45:11;50.44;46.56;56.08;;
79200;Laerm;68628;48.714;9.472;2023-06-26T05:47:36;48.37;44.91;56.56;;
79200;Laerm;68628;48.714;9.472;2023-06-26T05:50:03;50.30;44.98;57.30;;
79200;Laerm;68628;48.714;9.472;2023-06-26T05:52:30;50.58;45.55;58.56;;
79200;Laerm;68628;48.714;9.472;2023-06-26T05:54:57;53.54;45.27;67.21;;
79200;Laerm;68628;48.714;9.472;2023-06-26T05:57:29;50.21;45.00;58.42;;
79200;Laerm;68628;48.714;9.472;2023-06-26T05:59:55;49.02;44.48;56.71;;
79200;Laerm;68628;48.714;9.472;2023-06-26T06:02:21;53.36;45.02;61.65;;
79200;Laerm;68628;48.714;9.472;2023-06-26T06:04:47;49.25;44.56;59.50;;
79200;Laerm;68628;48.714;9.472;2023-06-26T06:07:13;48.69;43.84;58.21;;
79200;Laerm;68628;48.714;9.472;2023-06-26T06:09:39;50.42;44.48;62.09;;
79200;Laerm;68628;48.714;9.472;2023-06-26T06:12:06;48.23;42.79;55.53;;
79200;Laerm;68628;48.714;9.472;2023-06-26T06:14:33;49.33;43.74;56.13;;
79200;Laerm;68628;48.714;9.472;2023-06-26T06:17:00;49.19;46.32;54.82;;
79200;Laerm;68628;48.714;9.472;2023-06-26T06:19:25;49.42;44.02;56.95;;
79200;Laerm;68628;48.714;9.472;2023-06-26T06:21:51;50.75;42.39;63.77;;
79200;Laerm;68628;48.714;9.472;2023-06-26T06:24:17;50.68;44.15;60.54;;
79200;Laerm;68628;48.714;9.472;2023-06-26T06:26:43;53.04;43.76;67.16;;
79200;Laerm;68628;48.714;9.472;2023-06-26T06:29:08;49.12;43.31;56.87;;
79200;Laerm;68628;48.714;9.472;2023-06-26T06:31:34;49.61;43.19;56.82;;
79200;Laerm;68628;48.714;9.472;2023-06-26T06:34:00;50.21;42.60;59.15;;
79200;Laerm;68628;48.714;9.472;2023-06-26T06:36:25;50.68;42.88;59.52;;
79200;Laerm;68628;48.714;9.472;2023-06-26T06:38:51;49.10;43.55;55.90;;
79200;Laerm;68628;48.714;9.472;2023-06-26T06:41:17;50.86;43.89;61.62;;
79200;Laerm;68628;48.714;9.472;2023-06-26T06:43:43;50.79;46.60;56.71;;
79200;Laerm;68628;48.714;9.472;2023-06-26T06:46:08;49.02;43.00;62.05;;
79200;Laerm;68628;48.714;9.472;2023-06-26T06:48:34;47.05;42.38;59.60;;
79200;Laerm;68628;48.714;9.472;2023-06-26T06:51:00;50.63;43.26;62.19;;
79200;Laerm;68628;48.714;9.472;2023-06-26T06:53:26;47.87;41.40;59.66;;
79200;Laerm;68628;48.714;9.472;2023-06-26T06:55:52;45.84;42.21;54.43;;
79200;Laerm;68628;48.714;9.472;2023-06-26T06:58:18;49.18;43.10;59.81;;
79200;Laerm;68628;48.714;9.472;2023-06-26T07:00:45;48.21;42.51;64.36;;
79200;Laerm;68628;48.714;9.472;2023-06-26T07:03:10;48.35;41.85;63.89;;
79200;Laerm;68628;48.714;9.472;2023-06-26T07:05:37;49.67;41.56;64.17;;
79200;Laerm;68628;48.714;9.472;2023-06-26T07:08:03;50.56;42.59;66.91;;
79200;Laerm;68628;48.714;9.472;2023-06-26T07:10:30;48.29;41.85;61.57;;
79200;Laerm;68628;48.714;9.472;2023-06-26T07:12:55;49.15;42.97;56.01;;
79200;Laerm;68628;48.714;9.472;2023-06-26T07:15:21;48.44;42.85;57.79;;
79200;Laerm;68628;48.714;9.472;2023-06-26T07:17:47;47.47;42.43;58.27;;
79200;Laerm;68628;48.714;9.472;2023-06-26T07:20:12;49.22;43.36;59.34;;
79200;Laerm;68628;48.714;9.472;2023-06-26T07:22:42;53.87;41.00;70.41;;
79200;Laerm;68628;48.714;9.472;2023-06-26T07:25:10;47.20;40.40;57.38;;
79200;Laerm;68628;48.714;9.472;2023-06-26T07:27:40;48.62;43.86;60.53;;
79200;Laerm;68628;48.714;9.472;2023-06-26T07:30:08;51.69;43.53;64.27;;
79200;Laerm;68628;48.714;9.472;2023-06-26T07:32:39;47.38;42.90;58.38;;
79200;Laerm;68628;48.714;9.472;2023-06-26T07:35:09;52.00;42.63;64.66;;
79200;Laerm;68628;48.714;9.472;2023-06-26T07:37:34;51.91;42.29;69.88;;
79200;Laerm;68628;48.714;9.472;2023-06-26T07:40:00;48.18;42.20;59.69;;
79200;Laerm;68628;48.714;9.472;2023-06-26T07:42:26;53.73;43.35;67.88;;
79200;Laerm;68628;48.714;9.472;2023-06-26T07:44:51;45.70;41.14;58.16;;
79200;Laerm;68628;48.714;9.472;2023-06-26T07:47:17;50.38;40.48;62.48;;
79200;Laerm;68628;48.714;9.472;2023-06-26T07:49:42;47.70;41.80;63.87;;
79200;Laerm;68628;48.714;9.472;2023-06-26T07:52:08;47.32;42.03;56.07;;
79200;Laerm;68628;48.714;9.472;2023-06-26T07:54:37;47.18;40.39;66.49;;
79200;Laerm;68628;48.714;9.472;2023-06-26T07:57:05;54.04;41.20;73.59;;
79200;Laerm;68628;48.714;9.472;2023-06-26T07:59:34;46.34;40.83;58.33;;
79200;Laerm;68628;48.714;9.472;2023-06-26T08:02:00;49.27;40.70;57.85;;
79200;Laerm;68628;48.714;9.472;2023-06-26T08:04:28;48.06;42.12;60.71;;
79200;Laerm;68628;48.714;9.472;2023-06-26T08:06:59;48.03;40.90;56.37;;
79200;Laerm;68628;48.714;9.472;2023-06-26T08:09:28;49.14;42.12;59.56;;
79200;Laerm;68628;48.714;9.472;2023-06-26T08:11:55;48.80;42.02;59.71;;
79200;Laerm;68628;48.714;9.472;2023-06-26T08:14:21;47.43;40.85;57.12;;
79200;Laerm;68628;48.714;9.472;2023-06-26T08:16:48;46.45;40.76;56.01;;
79200;Laerm;68628;48.714;9.472;2023-06-26T08:19:15;45.83;41.12;56.43;;
79200;Laerm;68628;48.714;9.472;2023-06-26T08:21:42;45.68;40.88;56.89;;
79200;Laerm;68628;48.714;9.472;2023-06-26T08:24:07;49.37;39.03;69.33;;
79200;Laerm;68628;48.714;9.472;2023-06-26T08:26:35;49.57;40.81;67.72;;
79200;Laerm;68628;48.714;9.472;2023-06-26T08:29:01;46.09;40.06;60.08;;
79200;Laerm;68628;48.714;9.472;2023-06-26T08:31:36;45.76;40.44;56.50;;
79200;Laerm;68628;48.714;9.472;2023-06-26T08:34:02;46.15;40.40;64.06;;
79200;Laerm;68628;48.714;9.472;2023-06-26T08:36:28;48.55;41.65;66.52;;
79200;Laerm;68628;48.714;9.472;2023-06-26T08:38:54;44.47;38.67;53.89;;
79200;Laerm;68628;48.714;9.472;2023-06-26T08:41:20;45.54;40.45;54.00;;
79200;Laerm;68628;48.714;9.472;2023-06-26T08:43:46;49.14;41.19;60.52;;
79200;Laerm;68628;48.714;9.472;2023-06-26T08:46:11;47.15;40.75;64.21;;
79200;Laerm;68628;48.714;9.472;2023-06-26T08:48:39;47.35;40.23;62.44;;
79200;Laerm;68628;48.714;9.472;2023-06-26T08:51:15;48.47;39.58;66.47;;
79200;Laerm;68628;48.714;9.472;2023-06-26T08:56:22;52.26;41.30;70.98;;
79200;Laerm;68628;48.714;9.472;2023-06-26T08:58:49;49.06;41.22;64.95;;
79200;Laerm;68628;48.714;9.472;2023-06-26T09:01:15;47.71;40.94;61.06;;
79200;Laerm;68628;48.714;9.472;2023-06-26T09:03:43;54.00;42.21;72.30;;
79200;Laerm;68628;48.714;9.472;2023-06-26T09:06:08;49.15;40.29;70.19;;
79200;Laerm;68628;48.714;9.472;2023-06-26T09:08:34;68.87;41.23;88.33;;
79200;Laerm;68628;48.714;9.472;2023-06-26T09:11:00;54.34;40.04;74.14;;
79200;Laerm;68628;48.714;9.472;2023-06-26T09:13:28;57.51;38.21;75.99;;
79200;Laerm;68628;48.714;9.472;2023-06-26T09:15:54;48.78;39.68;66.70;;
79200;Laerm;68628;48.714;9.472;2023-06-26T09:18:21;60.32;41.45;81.22;;
79200;Laerm;68628;48.714;9.472;2023-06-26T09:20:48;62.13;39.88;84.05;;
79200;Laerm;68628;48.714;9.472;2023-06-26T09:23:14;47.01;40.00;64.74;;
79200;Laerm;68628;48.714;9.472;2023-06-26T09:25:41;60.10;41.09;81.95;;
79200;Laerm;68628;48.714;9.472;2023-06-26T09:28:08;49.74;40.07;66.08;;
79200;Laerm;68628;48.714;9.472;2023-06-26T09:30:35;58.73;39.56;80.08;;
79200;Laerm;68628;48.714;9.472;2023-06-26T09:33:18;62.29;39.78;78.35;;
79200;Laerm;68628;48.714;9.472;2023-06-26T09:35:45;53.59;41.01;76.43;;
79200;Laerm;68628;48.714;9.472;2023-06-26T09:38:13;74.55;41.16;92.84;;
79200;Laerm;68628;48.714;9.472;2023-06-26T09:40:39;49.77;40.42;69.29;;
79200;Laerm;68628;48.714;9.472;2023-06-26T09:43:09;49.55;40.34;70.96;;
79200;Laerm;68628;48.714;9.472;2023-06-26T09:45:40;61.60;40.24;84.00;;
79200;Laerm;68628;48.714;9.472;2023-06-26T09:48:07;50.13;39.86;66.88;;
79200;Laerm;68628;48.714;9.472;2023-06-26T09:50:34;52.65;40.96;70.08;;
79200;Laerm;68628;48.714;9.472;2023-06-26T09:53:12;64.48;40.46;92.04;;
79200;Laerm;68628;48.714;9.472;2023-06-26T09:55:41;57.33;41.06;81.06;;
79200;Laerm;68628;48.714;9.472;2023-06-26T09:58:11;60.69;40.32;78.85;;
79200;Laerm;68628;48.714;9.472;2023-06-26T10:00:42;61.50;39.52;84.51;;
79200;Laerm;68628;48.714;9.472;2023-06-26T10:03:08;57.45;39.50;75.36;;
79200;Laerm;68628;48.714;9.472;2023-06-26T10:05:35;52.55;40.55;73.72;;
79200;Laerm;68628;48.714;9.472;2023-06-26T10:08:03;61.71;40.06;79.98;;
79200;Laerm;68628;48.714;9.472;2023-06-26T10:10:35;60.65;39.68;83.73;;
79200;Laerm;68628;48.714;9.472;2023-06-26T10:13:15;47.51;37.84;68.55;;
79200;Laerm;68628;48.714;9.472;2023-06-26T10:15:45;52.52;38.30;77.22;;
79200;Laerm;68628;48.714;9.472;2023-06-26T10:18:15;50.58;38.45;65.83;;
79200;Laerm;68628;48.714;9.472;2023-06-26T10:20:48;45.89;38.78;55.27;;
79200;Laerm;68628;48.714;9.472;2023-06-26T10:23:15;43.32;38.14;57.93;;
79200;Laerm;68628;48.714;9.472;2023-06-26T10:25:48;53.45;39.62;73.08;;
79200;Laerm;68628;48.714;9.472;2023-06-26T10:28:17;47.32;39.06;56.48;;
79200;Laerm;68628;48.714;9.472;2023-06-26T10:30:50;46.24;38.54;56.04;;
79200;Laerm;68628;48.714;9.472;2023-06-26T10:33:20;50.70;37.31;72.83;;
79200;Laerm;68628;48.714;9.472;2023-06-26T10:35:46;42.63;36.71;53.59;;
79200;Laerm;68628;48.714;9.472;2023-06-26T10:38:11;49.37;36.66;68.48;;
79200;Laerm;68628;48.714;9.472;2023-06-26T10:40:47;45.01;38.55;57.34;;
79200;Laerm;68628;48.714;9.472;2023-06-26T10:43:15;51.78;40.52;66.95;;
79200;Laerm;68628;48.714;9.472;2023-06-26T10:45:49;46.72;38.05;57.12;;
79200;Laerm;68628;48.714;9.472;2023-06-26T10:48:20;50.53;38.48;62.03;;
79200;Laerm;68628;48.714;9.472;2023-06-26T10:50:48;50.78;39.40;66.68;;
79200;Laerm;68628;48.714;9.472;2023-06-26T10:56:05;47.54;37.68;63.51;;
79200;Laerm;68628;48.714;9.472;2023-06-26T11:01:21;47.23;37.74;58.99;;
79200;Laerm;68628;48.714;9.472;2023-06-26T11:04:05;49.38;38.21;62.21;;
79200;Laerm;68628;48.714;9.472;2023-06-26T11:06:33;49.72;37.42;60.21;;
79200;Laerm;68628;48.714;9.472;2023-06-26T11:14:25;50.28;39.37;65.89;;
79200;Laerm;68628;48.714;9.472;2023-06-26T11:16:51;52.91;40.65;65.87;;
79200;Laerm;68628;48.714;9.472;2023-06-26T11:19:19;58.59;41.20;79.79;;
79200;Laerm;68628;48.714;9.472;2023-06-26T11:21:46;57.46;40.04;79.34;;
79200;Laerm;68628;48.714;9.472;2023-06-26T11:24:13;57.16;41.27;76.94;;
79200;Laerm;68628;48.714;9.472;2023-06-26T11:26:44;54.40;40.06;69.68;;
79200;Laerm;68628;48.714;9.472;2023-06-26T11:29:11;51.70;38.97;66.14;;
79200;Laerm;68628;48.714;9.472;2023-06-26T11:31:40;54.81;40.48;76.32;;
79200;Laerm;68628;48.714;9.472;2023-06-26T11:34:09;52.29;41.51;64.97;;
79200;Laerm;68628;48.714;9.472;2023-06-26T11:36:38;52.58;40.01;72.05;;
79200;Laerm;68628;48.714;9.472;2023-06-26T11:39:06;53.62;40.73;67.26;;
79200;Laerm;68628;48.714;9.472;2023-06-26T11:41:34;52.75;39.33;68.49;;
79200;Laerm;68628;48.714;9.472;2023-06-26T11:44:06;48.99;40.57;60.99;;
79200;Laerm;68628;48.714;9.472;2023-06-26T11:46:34;48.32;40.21;62.73;;
79200;Laerm;68628;48.714;9.472;2023-06-26T11:49:07;46.34;40.30;56.38;;
79200;Laerm;68628;48.714;9.472;2023-06-26T11:51:34;51.01;40.00;71.65;;
79200;Laerm;68628;48.714;9.472;2023-06-26T11:54:03;47.53;39.40;68.39;;
79200;Laerm;68628;48.714;9.472;2023-06-26T11:56:30;64.42;40.02;87.84;;
79200;Laerm;68628;48.714;9.472;2023-06-26T11:59:12;57.14;41.05;77.10;;
79200;Laerm;68628;48.714;9.472;2023-06-26T12:01:42;51.27;40.60;69.50;;
79200;Laerm;68628;48.714;9.472;2023-06-26T12:04:15;55.40;41.02;79.30;;
79200;Laerm;68628;48.714;9.472;2023-06-26T12:06:52;49.70;39.72;69.19;;
79200;Laerm;68628;48.714;9.472;2023-06-26T12:09:23;55.87;40.42;81.26;;
79200;Laerm;68628;48.714;9.472;2023-06-26T12:11:54;52.27;39.46;73.07;;
79200;Laerm;68628;48.714;9.472;2023-06-26T12:14:22;54.47;39.51;78.81;;
79200;Laerm;68628;48.714;9.472;2023-06-26T12:16:49;49.26;38.15;73.15;;
79200;Laerm;68628;48.714;9.472;2023-06-26T12:19:15;48.59;41.19;63.78;;
79200;Laerm;68628;48.714;9.472;2023-06-26T12:24:09;54.64;41.46;76.32;;
79200;Laerm;68628;48.714;9.472;2023-06-26T12:26:36;58.06;42.18;77.79;;
79200;Laerm;68628;48.714;9.472;2023-06-26T12:29:12;54.42;40.72;74.29;;
79200;Laerm;68628;48.714;9.472;2023-06-26T12:31:44;60.26;42.42;86.67;;
79200;Laerm;68628;48.714;9.472;2023-06-26T12:34:13;61.77;39.07;86.32;;
79200;Laerm;68628;48.714;9.472;2023-06-26T12:36:50;51.88;38.73;77.28;;
79200;Laerm;68628;48.714;9.472;2023-06-26T12:39:19;64.08;39.11;86.73;;
79200;Laerm;68628;48.714;9.472;2023-06-26T12:41:54;53.38;38.98;73.86;;
79200;Laerm;68628;48.714;9.472;2023-06-26T12:44:25;49.22;38.90;69.99;;
79200;Laerm;68628;48.714;9.472;2023-06-26T12:46:57;56.63;39.20;79.25;;
79200;Laerm;68628;48.714;9.472;2023-06-26T12:49:33;47.15;39.80;62.79;;
79200;Laerm;68628;48.714;9.472;2023-06-26T12:52:02;53.53;37.97;74.52;;
79200;Laerm;68628;48.714;9.472;2023-06-26T12:54:29;68.12;41.05;92.33;;
79200;Laerm;68628;48.714;9.472;2023-06-26T12:56:54;56.45;38.81;84.87;;
79200;Laerm;68628;48.714;9.472;2023-06-26T12:59:21;50.66;39.96;67.98;;
79200;Laerm;68628;48.714;9.472;2023-06-26T13:01:47;53.99;40.58;71.79;;
79200;Laerm;68628;48.714;9.472;2023-06-26T13:04:14;52.03;40.06;75.30;;
79200;Laerm;68628;48.714;9.472;2023-06-26T13:06:39;55.71;39.85;75.49;;
79200;Laerm;68628;48.714;9.472;2023-06-26T13:09:05;51.80;41.04;67.39;;
79200;Laerm;68628;48.714;9.472;2023-06-26T13:11:34;45.41;38.28;59.80;;
79200;Laerm;68628;48.714;9.472;2023-06-26T13:14:01;50.91;38.71;68.83;;
79200;Laerm;68628;48.714;9.472;2023-06-26T13:16:27;51.19;39.06;71.68;;
79200;Laerm;68628;48.714;9.472;2023-06-26T13:18:52;54.72;38.81;75.48;;
79200;Laerm;68628;48.714;9.472;2023-06-26T13:21:18;52.29;40.72;71.58;;
79200;Laerm;68628;48.714;9.472;2023-06-26T13:23:45;60.54;40.09;84.77;;
79200;Laerm;68628;48.714;9.472;2023-06-26T13:26:11;49.16;39.09;63.88;;
79200;Laerm;68628;48.714;9.472;2023-06-26T13:28:37;60.29;39.22;85.34;;
79200;Laerm;68628;48.714;9.472;2023-06-26T13:31:04;50.65;39.35;69.70;;
79200;Laerm;68628;48.714;9.472;2023-06-26T13:33:30;54.56;39.94;74.87;;
79200;Laerm;68628;48.714;9.472;2023-06-26T13:35:57;52.43;40.01;73.68;;
79200;Laerm;68628;48.714;9.472;2023-06-26T13:38:24;52.89;41.83;75.93;;
79200;Laerm;68628;48.714;9.472;2023-06-26T13:40:52;45.43;40.68;53.30;;
79200;Laerm;68628;48.714;9.472;2023-06-26T13:43:19;48.55;41.59;67.99;;
79200;Laerm;68628;48.714;9.472;2023-06-26T13:45:46;58.39;39.35;82.26;;
79200;Laerm;68628;48.714;9.472;2023-06-26T13:48:11;50.60;40.05;63.99;;
79200;Laerm;68628;48.714;9.472;2023-06-26T13:50:37;54.79;40.05;76.18;;
79200;Laerm;68628;48.714;9.472;2023-06-26T13:53:03;61.86;39.74;84.06;;
79200;Laerm;68628;48.714;9.472;2023-06-26T13:55:29;52.57;40.44;67.85;;
79200;Laerm;68628;48.714;9.472;2023-06-26T13:57:54;50.34;39.61;68.53;;
79200;Laerm;68628;48.714;9.472;2023-06-26T14:00:21;47.26;38.84;66.61;;
79200;Laerm;68628;48.714;9.472;2023-06-26T14:02:48;54.37;40.15;78.29;;
79200;Laerm;68628;48.714;9.472;2023-06-26T14:05:14;61.16;42.16;83.04;;
79200;Laerm;68628;48.714;9.472;2023-06-26T14:07:40;59.66;41.33;82.13;;
79200;Laerm;68628;48.714;9.472;2023-06-26T14:10:06;70.94;41.81;95.65;;